Weather at Huntingburg Airport

Public forecast

Using degrees Fahrenheit for public forecast. Weather courtesy of forecast.io.

Current aviation weather report (METAR) for Huntingburg Airport

Retrieved 2020/12/04 10:56 UTC (10 minutes ago):

KHNB 041056Z AUTO 04003KT 10SM BKN019 OVC025 04/02 A3003 RMK AO2 SLP174 T00440022

Aviation forecast (TAF) for Huntingburg Airport

Retrieved 2020/12/04 06:30 UTC (5 hours ago):

TAF KHNB 040529Z 0406/0506 VRB04KT P6SM BKN030 FM041500 25008KT P6SM BKN025 FM042300 25006KT P6SM SCT025